sensor_id;sensor_type;location;lat;lon;timestamp;P1;durP1;ratioP1;P2;durP2;ratioP2
13366;SDS011;6752;52.612;13.630;2022-08-20T00:03:14;15.85;;;14.07;;
13366;SDS011;6752;52.612;13.630;2022-08-20T00:08:22;14.82;;;12.93;;
13366;SDS011;6752;52.612;13.630;2022-08-20T00:13:29;19.40;;;13.18;;
13366;SDS011;6752;52.612;13.630;2022-08-20T00:18:29;14.65;;;12.50;;
13366;SDS011;6752;52.612;13.630;2022-08-20T00:23:32;11.95;;;10.75;;
13366;SDS011;6752;52.612;13.630;2022-08-20T00:28:34;12.50;;;11.30;;
13366;SDS011;6752;52.612;13.630;2022-08-20T00:33:37;12.02;;;10.82;;
13366;SDS011;6752;52.612;13.630;2022-08-20T00:38:40;12.52;;;10.93;;
13366;SDS011;6752;52.612;13.630;2022-08-20T00:43:43;12.32;;;11.02;;
13366;SDS011;6752;52.612;13.630;2022-08-20T00:48:48;12.48;;;11.23;;
13366;SDS011;6752;52.612;13.630;2022-08-20T00:53:49;11.63;;;10.43;;
13366;SDS011;6752;52.612;13.630;2022-08-20T01:03:53;13.07;;;11.57;;
13366;SDS011;6752;52.612;13.630;2022-08-20T01:08:56;15.02;;;13.48;;
13366;SDS011;6752;52.612;13.630;2022-08-20T01:14:02;14.57;;;13.15;;
13366;SDS011;6752;52.612;13.630;2022-08-20T01:19:03;13.60;;;12.20;;
13366;SDS011;6752;52.612;13.630;2022-08-20T01:24:25;12.23;;;10.48;;
13366;SDS011;6752;52.612;13.630;2022-08-20T01:29:24;13.60;;;11.55;;
13366;SDS011;6752;52.612;13.630;2022-08-20T01:34:26;15.68;;;12.93;;
13366;SDS011;6752;52.612;13.630;2022-08-20T01:39:30;13.98;;;12.48;;
13366;SDS011;6752;52.612;13.630;2022-08-20T01:44:30;14.63;;;13.13;;
13366;SDS011;6752;52.612;13.630;2022-08-20T01:49:33;14.43;;;12.73;;
13366;SDS011;6752;52.612;13.630;2022-08-20T01:54:35;16.92;;;14.13;;
13366;SDS011;6752;52.612;13.630;2022-08-20T01:59:38;18.95;;;16.48;;
13366;SDS011;6752;52.612;13.630;2022-08-20T02:04:40;20.85;;;18.73;;
13366;SDS011;6752;52.612;13.630;2022-08-20T02:09:46;20.48;;;18.27;;
13366;SDS011;6752;52.612;13.630;2022-08-20T02:14:47;27.02;;;24.02;;
13366;SDS011;6752;52.612;13.630;2022-08-20T02:19:52;26.83;;;23.98;;
13366;SDS011;6752;52.612;13.630;2022-08-20T02:24:52;30.12;;;26.40;;
13366;SDS011;6752;52.612;13.630;2022-08-20T02:29:55;35.15;;;29.87;;
13366;SDS011;6752;52.612;13.630;2022-08-20T02:35:01;30.20;;;27.10;;
13366;SDS011;6752;52.612;13.630;2022-08-20T02:40:00;34.03;;;27.58;;
13366;SDS011;6752;52.612;13.630;2022-08-20T02:45:02;31.33;;;27.92;;
13366;SDS011;6752;52.612;13.630;2022-08-20T02:50:05;33.20;;;28.00;;
13366;SDS011;6752;52.612;13.630;2022-08-20T02:55:10;29.30;;;26.40;;
13366;SDS011;6752;52.612;13.630;2022-08-20T03:00:14;29.48;;;26.05;;
13366;SDS011;6752;52.612;13.630;2022-08-20T03:05:15;30.40;;;27.10;;
13366;SDS011;6752;52.612;13.630;2022-08-20T03:10:20;31.92;;;28.30;;
13366;SDS011;6752;52.612;13.630;2022-08-20T03:15:19;29.58;;;26.35;;
13366;SDS011;6752;52.612;13.630;2022-08-20T03:20:22;28.38;;;25.25;;
13366;SDS011;6752;52.612;13.630;2022-08-20T03:25:24;27.27;;;24.48;;
13366;SDS011;6752;52.612;13.630;2022-08-20T03:30:27;27.02;;;24.23;;
13366;SDS011;6752;52.612;13.630;2022-08-20T03:35:29;28.98;;;25.40;;
13366;SDS011;6752;52.612;13.630;2022-08-20T03:40:32;28.67;;;25.67;;
13366;SDS011;6752;52.612;13.630;2022-08-20T03:45:34;27.05;;;24.25;;
13366;SDS011;6752;52.612;13.630;2022-08-20T03:50:36;28.17;;;24.12;;
13366;SDS011;6752;52.612;13.630;2022-08-20T03:55:39;26.62;;;23.23;;
13366;SDS011;6752;52.612;13.630;2022-08-20T04:00:43;27.87;;;24.87;;
13366;SDS011;6752;52.612;13.630;2022-08-20T04:05:46;29.08;;;25.37;;
13366;SDS011;6752;52.612;13.630;2022-08-20T04:10:48;29.25;;;25.75;;
13366;SDS011;6752;52.612;13.630;2022-08-20T04:15:50;29.55;;;26.45;;
13366;SDS011;6752;52.612;13.630;2022-08-20T04:20:56;29.73;;;26.52;;
13366;SDS011;6752;52.612;13.630;2022-08-20T04:25:58;30.77;;;27.17;;
13366;SDS011;6752;52.612;13.630;2022-08-20T04:31:00;27.65;;;24.87;;
13366;SDS011;6752;52.612;13.630;2022-08-20T04:36:03;27.20;;;24.30;;
13366;SDS011;6752;52.612;13.630;2022-08-20T04:41:08;29.85;;;26.73;;
13366;SDS011;6752;52.612;13.630;2022-08-20T04:46:11;29.00;;;25.90;;
13366;SDS011;6752;52.612;13.630;2022-08-20T04:51:13;29.83;;;26.65;;
13366;SDS011;6752;52.612;13.630;2022-08-20T04:56:15;27.50;;;24.23;;
13366;SDS011;6752;52.612;13.630;2022-08-20T05:01:18;29.83;;;26.48;;
13366;SDS011;6752;52.612;13.630;2022-08-20T05:06:21;32.00;;;26.48;;
13366;SDS011;6752;52.612;13.630;2022-08-20T05:11:23;27.77;;;25.00;;
13366;SDS011;6752;52.612;13.630;2022-08-20T05:16:25;27.00;;;24.10;;
13366;SDS011;6752;52.612;13.630;2022-08-20T05:21:27;27.40;;;24.48;;
13366;SDS011;6752;52.612;13.630;2022-08-20T05:26:33;31.17;;;26.60;;
13366;SDS011;6752;52.612;13.630;2022-08-20T05:31:33;31.10;;;26.90;;
13366;SDS011;6752;52.612;13.630;2022-08-20T05:36:35;31.30;;;28.10;;
13366;SDS011;6752;52.612;13.630;2022-08-20T05:41:37;34.28;;;28.98;;
13366;SDS011;6752;52.612;13.630;2022-08-20T05:46:39;30.42;;;27.30;;
13366;SDS011;6752;52.612;13.630;2022-08-20T05:51:48;32.55;;;28.80;;
13366;SDS011;6752;52.612;13.630;2022-08-20T05:56:50;31.45;;;28.17;;
13366;SDS011;6752;52.612;13.630;2022-08-20T06:02:02;33.10;;;29.50;;
13366;SDS011;6752;52.612;13.630;2022-08-20T06:07:09;35.20;;;31.20;;
13366;SDS011;6752;52.612;13.630;2022-08-20T06:12:10;36.47;;;29.90;;
13366;SDS011;6752;52.612;13.630;2022-08-20T06:17:14;33.42;;;29.20;;
13366;SDS011;6752;52.612;13.630;2022-08-20T06:22:15;35.42;;;31.50;;
13366;SDS011;6752;52.612;13.630;2022-08-20T06:27:17;34.53;;;30.85;;
13366;SDS011;6752;52.612;13.630;2022-08-20T06:32:20;38.15;;;30.80;;
13366;SDS011;6752;52.612;13.630;2022-08-20T06:37:23;32.80;;;29.48;;
13366;SDS011;6752;52.612;13.630;2022-08-20T06:42:24;34.65;;;30.83;;
13366;SDS011;6752;52.612;13.630;2022-08-20T06:47:27;33.05;;;29.35;;
13366;SDS011;6752;52.612;13.630;2022-08-20T06:52:29;33.97;;;29.17;;
13366;SDS011;6752;52.612;13.630;2022-08-20T06:57:32;30.17;;;26.62;;
13366;SDS011;6752;52.612;13.630;2022-08-20T07:02:34;31.17;;;27.98;;
13366;SDS011;6752;52.612;13.630;2022-08-20T07:07:37;32.50;;;28.95;;
13366;SDS011;6752;52.612;13.630;2022-08-20T07:12:39;32.63;;;29.12;;
13366;SDS011;6752;52.612;13.630;2022-08-20T07:17:41;32.65;;;29.15;;
13366;SDS011;6752;52.612;13.630;2022-08-20T07:22:44;37.05;;;30.08;;
13366;SDS011;6752;52.612;13.630;2022-08-20T07:27:46;31.50;;;27.90;;
13366;SDS011;6752;52.612;13.630;2022-08-20T07:32:48;47.70;;;30.40;;
13366;SDS011;6752;52.612;13.630;2022-08-20T07:37:51;52.53;;;30.17;;
13366;SDS011;6752;52.612;13.630;2022-08-20T07:42:53;35.92;;;30.92;;
13366;SDS011;6752;52.612;13.630;2022-08-20T07:48:04;34.45;;;29.90;;
13366;SDS011;6752;52.612;13.630;2022-08-20T07:52:58;81.47;;;34.78;;
13366;SDS011;6752;52.612;13.630;2022-08-20T07:58:06;38.22;;;32.85;;
13366;SDS011;6752;52.612;13.630;2022-08-20T08:03:12;38.07;;;34.00;;
13366;SDS011;6752;52.612;13.630;2022-08-20T08:08:15;36.97;;;33.42;;
13366;SDS011;6752;52.612;13.630;2022-08-20T08:13:17;37.63;;;33.40;;
13366;SDS011;6752;52.612;13.630;2022-08-20T08:18:20;37.53;;;33.13;;
13366;SDS011;6752;52.612;13.630;2022-08-20T08:23:22;37.20;;;33.10;;
13366;SDS011;6752;52.612;13.630;2022-08-20T08:28:24;39.08;;;34.95;;
13366;SDS011;6752;52.612;13.630;2022-08-20T08:33:29;40.40;;;35.40;;
13366;SDS011;6752;52.612;13.630;2022-08-20T08:38:32;38.50;;;34.80;;
13366;SDS011;6752;52.612;13.630;2022-08-20T08:43:34;36.78;;;33.05;;
13366;SDS011;6752;52.612;13.630;2022-08-20T08:48:44;36.15;;;32.00;;
13366;SDS011;6752;52.612;13.630;2022-08-20T08:53:46;40.25;;;35.85;;
13366;SDS011;6752;52.612;13.630;2022-08-20T08:58:50;39.20;;;35.07;;
13366;SDS011;6752;52.612;13.630;2022-08-20T09:03:52;42.22;;;37.65;;
13366;SDS011;6752;52.612;13.630;2022-08-20T09:08:57;41.35;;;36.25;;
13366;SDS011;6752;52.612;13.630;2022-08-20T09:13:57;39.08;;;35.28;;
13366;SDS011;6752;52.612;13.630;2022-08-20T09:19:00;37.08;;;33.08;;
13366;SDS011;6752;52.612;13.630;2022-08-20T09:24:02;38.72;;;34.72;;
13366;SDS011;6752;52.612;13.630;2022-08-20T09:29:04;41.65;;;35.08;;
13366;SDS011;6752;52.612;13.630;2022-08-20T09:34:07;43.30;;;38.22;;
13366;SDS011;6752;52.612;13.630;2022-08-20T09:39:09;44.17;;;39.55;;
13366;SDS011;6752;52.612;13.630;2022-08-20T09:44:12;41.92;;;37.45;;
13366;SDS011;6752;52.612;13.630;2022-08-20T09:49:14;41.00;;;36.70;;
13366;SDS011;6752;52.612;13.630;2022-08-20T09:54:16;39.88;;;35.58;;
13366;SDS011;6752;52.612;13.630;2022-08-20T09:59:21;44.05;;;38.10;;
13366;SDS011;6752;52.612;13.630;2022-08-20T10:04:26;43.13;;;38.63;;
13366;SDS011;6752;52.612;13.630;2022-08-20T10:09:28;40.25;;;36.33;;
13366;SDS011;6752;52.612;13.630;2022-08-20T10:14:31;37.60;;;33.95;;
13366;SDS011;6752;52.612;13.630;2022-08-20T10:29:37;42.00;;;36.15;;
13366;SDS011;6752;52.612;13.630;2022-08-20T10:34:40;40.42;;;35.95;;
13366;SDS011;6752;52.612;13.630;2022-08-20T10:39:42;41.22;;;35.53;;
13366;SDS011;6752;52.612;13.630;2022-08-20T10:49:46;34.63;;;31.08;;
13366;SDS011;6752;52.612;13.630;2022-08-20T10:54:48;33.83;;;30.35;;
13366;SDS011;6752;52.612;13.630;2022-08-20T10:59:51;33.75;;;28.77;;
13366;SDS011;6752;52.612;13.630;2022-08-20T11:04:53;31.77;;;28.42;;
13366;SDS011;6752;52.612;13.630;2022-08-20T11:09:55;97.03;;;44.75;;
13366;SDS011;6752;52.612;13.630;2022-08-20T11:14:58;29.63;;;26.50;;
13366;SDS011;6752;52.612;13.630;2022-08-20T11:20:00;26.40;;;23.80;;
13366;SDS011;6752;52.612;13.630;2022-08-20T11:25:03;27.15;;;24.00;;
13366;SDS011;6752;52.612;13.630;2022-08-20T11:35:07;25.45;;;20.70;;
13366;SDS011;6752;52.612;13.630;2022-08-20T11:40:09;24.52;;;22.02;;
13366;SDS011;6752;52.612;13.630;2022-08-20T11:45:12;26.75;;;19.83;;
13366;SDS011;6752;52.612;13.630;2022-08-20T11:50:15;23.12;;;20.37;;
13366;SDS011;6752;52.612;13.630;2022-08-20T11:55:16;21.70;;;19.40;;
13366;SDS011;6752;52.612;13.630;2022-08-20T12:00:21;19.65;;;17.25;;
13366;SDS011;6752;52.612;13.630;2022-08-20T12:05:21;17.08;;;15.02;;
13366;SDS011;6752;52.612;13.630;2022-08-20T12:15:25;15.18;;;13.35;;
13366;SDS011;6752;52.612;13.630;2022-08-20T12:20:28;13.60;;;11.52;;
13366;SDS011;6752;52.612;13.630;2022-08-20T12:25:30;10.98;;;9.75;;
13366;SDS011;6752;52.612;13.630;2022-08-20T12:35:34;11.23;;;9.35;;
13366;SDS011;6752;52.612;13.630;2022-08-20T12:40:37;11.93;;;9.13;;
13366;SDS011;6752;52.612;13.630;2022-08-20T12:45:39;10.73;;;9.25;;
13366;SDS011;6752;52.612;13.630;2022-08-20T12:50:42;10.88;;;8.88;;
13366;SDS011;6752;52.612;13.630;2022-08-20T13:00:46;11.40;;;7.72;;
13366;SDS011;6752;52.612;13.630;2022-08-20T13:05:48;9.07;;;6.65;;
13366;SDS011;6752;52.612;13.630;2022-08-20T13:10:51;8.63;;;6.43;;
13366;SDS011;6752;52.612;13.630;2022-08-20T13:15:53;8.63;;;5.57;;
13366;SDS011;6752;52.612;13.630;2022-08-20T13:20:55;10.93;;;6.07;;
13366;SDS011;6752;52.612;13.630;2022-08-20T13:25:58;10.93;;;6.18;;
13366;SDS011;6752;52.612;13.630;2022-08-20T13:31:00;9.77;;;5.50;;
13366;SDS011;6752;52.612;13.630;2022-08-20T13:36:02;8.00;;;5.13;;
13366;SDS011;6752;52.612;13.630;2022-08-20T13:41:05;8.63;;;5.65;;
13366;SDS011;6752;52.612;13.630;2022-08-20T13:46:07;7.60;;;5.87;;
13366;SDS011;6752;52.612;13.630;2022-08-20T13:51:09;8.73;;;6.57;;
13366;SDS011;6752;52.612;13.630;2022-08-20T13:56:16;8.60;;;6.13;;
13366;SDS011;6752;52.612;13.630;2022-08-20T14:01:18;8.32;;;6.97;;
13366;SDS011;6752;52.612;13.630;2022-08-20T14:06:20;9.32;;;7.32;;
13366;SDS011;6752;52.612;13.630;2022-08-20T14:11:23;11.98;;;7.40;;
13366;SDS011;6752;52.612;13.630;2022-08-20T14:16:25;11.23;;;8.88;;
13366;SDS011;6752;52.612;13.630;2022-08-20T14:21:27;12.93;;;9.48;;
13366;SDS011;6752;52.612;13.630;2022-08-20T14:26:30;18.48;;;9.20;;
13366;SDS011;6752;52.612;13.630;2022-08-20T14:31:32;13.02;;;9.80;;
13366;SDS011;6752;52.612;13.630;2022-08-20T14:36:35;13.60;;;9.85;;
13366;SDS011;6752;52.612;13.630;2022-08-20T14:41:43;11.50;;;10.20;;
13366;SDS011;6752;52.612;13.630;2022-08-20T14:46:50;13.43;;;11.25;;
13366;SDS011;6752;52.612;13.630;2022-08-20T14:51:48;16.98;;;10.55;;
13366;SDS011;6752;52.612;13.630;2022-08-20T14:56:51;13.38;;;10.93;;
13366;SDS011;6752;52.612;13.630;2022-08-20T15:01:53;13.68;;;11.60;;
13366;SDS011;6752;52.612;13.630;2022-08-20T15:06:55;12.95;;;11.25;;
13366;SDS011;6752;52.612;13.630;2022-08-20T15:11:58;15.77;;;12.15;;
13366;SDS011;6752;52.612;13.630;2022-08-20T15:17:00;14.43;;;11.45;;
13366;SDS011;6752;52.612;13.630;2022-08-20T15:22:03;13.82;;;11.70;;
13366;SDS011;6752;52.612;13.630;2022-08-20T15:27:11;16.40;;;12.13;;
13366;SDS011;6752;52.612;13.630;2022-08-20T15:32:13;15.00;;;12.32;;
13366;SDS011;6752;52.612;13.630;2022-08-20T15:37:18;18.08;;;14.40;;
13366;SDS011;6752;52.612;13.630;2022-08-20T15:42:18;17.17;;;13.35;;
13366;SDS011;6752;52.612;13.630;2022-08-20T15:52:30;20.83;;;15.68;;
13366;SDS011;6752;52.612;13.630;2022-08-20T16:03:05;17.77;;;15.88;;
13366;SDS011;6752;52.612;13.630;2022-08-20T16:18:33;18.92;;;15.35;;
13366;SDS011;6752;52.612;13.630;2022-08-20T16:23:35;18.90;;;15.80;;
13366;SDS011;6752;52.612;13.630;2022-08-20T16:29:02;20.23;;;16.30;;
13366;SDS011;6752;52.612;13.630;2022-08-20T16:34:23;18.50;;;16.50;;
13366;SDS011;6752;52.612;13.630;2022-08-20T16:39:25;16.52;;;14.80;;
13366;SDS011;6752;52.612;13.630;2022-08-20T16:44:30;17.60;;;15.23;;
13366;SDS011;6752;52.612;13.630;2022-08-20T16:49:35;17.30;;;15.48;;
13366;SDS011;6752;52.612;13.630;2022-08-20T16:54:37;19.70;;;17.27;;
13366;SDS011;6752;52.612;13.630;2022-08-20T17:15:18;19.87;;;16.65;;
13366;SDS011;6752;52.612;13.630;2022-08-20T17:30:26;21.10;;;18.65;;
13366;SDS011;6752;52.612;13.630;2022-08-20T17:35:39;20.10;;;16.95;;
13366;SDS011;6752;52.612;13.630;2022-08-20T17:40:37;19.37;;;17.25;;
13366;SDS011;6752;52.612;13.630;2022-08-20T17:45:41;23.08;;;19.45;;
13366;SDS011;6752;52.612;13.630;2022-08-20T17:50:43;21.48;;;19.27;;
13366;SDS011;6752;52.612;13.630;2022-08-20T17:55:47;19.50;;;17.55;;
13366;SDS011;6752;52.612;13.630;2022-08-20T18:00:47;19.05;;;17.10;;
13366;SDS011;6752;52.612;13.630;2022-08-20T18:05:57;19.65;;;17.15;;
13366;SDS011;6752;52.612;13.630;2022-08-20T18:16:15;19.57;;;17.50;;
13366;SDS011;6752;52.612;13.630;2022-08-20T18:32:02;26.02;;;20.77;;
13366;SDS011;6752;52.612;13.630;2022-08-20T18:37:19;25.12;;;21.35;;
13366;SDS011;6752;52.612;13.630;2022-08-20T18:42:07;25.05;;;21.02;;
13366;SDS011;6752;52.612;13.630;2022-08-20T18:47:25;26.98;;;21.95;;
13366;SDS011;6752;52.612;13.630;2022-08-20T18:52:27;28.30;;;25.23;;
13366;SDS011;6752;52.612;13.630;2022-08-20T18:57:32;30.23;;;25.88;;
13366;SDS011;6752;52.612;13.630;2022-08-20T19:03:00;24.23;;;21.87;;
13366;SDS011;6752;52.612;13.630;2022-08-20T19:07:56;25.05;;;22.33;;
13366;SDS011;6752;52.612;13.630;2022-08-20T19:13:13;26.62;;;21.60;;
13366;SDS011;6752;52.612;13.630;2022-08-20T19:23:27;27.35;;;21.98;;
13366;SDS011;6752;52.612;13.630;2022-08-20T19:28:30;27.27;;;22.48;;
13366;SDS011;6752;52.612;13.630;2022-08-20T19:33:31;24.35;;;21.67;;
13366;SDS011;6752;52.612;13.630;2022-08-20T19:38:37;25.50;;;22.40;;
13366;SDS011;6752;52.612;13.630;2022-08-20T19:43:40;24.75;;;22.10;;
13366;SDS011;6752;52.612;13.630;2022-08-20T19:54:19;22.65;;;18.77;;
13366;SDS011;6752;52.612;13.630;2022-08-20T19:59:20;24.40;;;20.42;;
13366;SDS011;6752;52.612;13.630;2022-08-20T20:04:22;24.87;;;18.37;;
13366;SDS011;6752;52.612;13.630;2022-08-20T20:09:26;20.60;;;17.48;;
13366;SDS011;6752;52.612;13.630;2022-08-20T20:14:34;25.02;;;18.87;;
13366;SDS011;6752;52.612;13.630;2022-08-20T20:19:49;22.27;;;18.73;;
13366;SDS011;6752;52.612;13.630;2022-08-20T20:30:10;19.67;;;16.58;;
13366;SDS011;6752;52.612;13.630;2022-08-20T20:35:10;14.85;;;13.13;;
13366;SDS011;6752;52.612;13.630;2022-08-20T20:40:21;18.05;;;14.93;;
13366;SDS011;6752;52.612;13.630;2022-08-20T20:45:23;17.00;;;14.68;;
13366;SDS011;6752;52.612;13.630;2022-08-20T20:50:28;17.67;;;14.70;;
13366;SDS011;6752;52.612;13.630;2022-08-20T20:55:31;15.90;;;14.30;;
13366;SDS011;6752;52.612;13.630;2022-08-20T21:00:33;15.35;;;13.43;;
13366;SDS011;6752;52.612;13.630;2022-08-20T21:05:35;18.60;;;13.80;;
13366;SDS011;6752;52.612;13.630;2022-08-20T21:10:38;17.50;;;14.18;;
13366;SDS011;6752;52.612;13.630;2022-08-20T21:15:42;18.42;;;13.48;;
13366;SDS011;6752;52.612;13.630;2022-08-20T21:20:44;16.42;;;13.70;;
13366;SDS011;6752;52.612;13.630;2022-08-20T21:25:47;17.85;;;14.65;;
13366;SDS011;6752;52.612;13.630;2022-08-20T21:30:49;18.60;;;14.32;;
13366;SDS011;6752;52.612;13.630;2022-08-20T21:35:51;17.48;;;12.85;;
13366;SDS011;6752;52.612;13.630;2022-08-20T21:40:54;13.93;;;12.32;;
13366;SDS011;6752;52.612;13.630;2022-08-20T21:45:56;15.13;;;13.05;;
13366;SDS011;6752;52.612;13.630;2022-08-20T21:50:58;16.17;;;12.15;;
13366;SDS011;6752;52.612;13.630;2022-08-20T21:56:01;16.98;;;12.90;;
13366;SDS011;6752;52.612;13.630;2022-08-20T22:01:04;16.70;;;13.32;;
13366;SDS011;6752;52.612;13.630;2022-08-20T22:06:06;13.77;;;11.52;;
13366;SDS011;6752;52.612;13.630;2022-08-20T22:11:09;16.12;;;12.68;;
13366;SDS011;6752;52.612;13.630;2022-08-20T22:16:14;14.85;;;11.93;;
13366;SDS011;6752;52.612;13.630;2022-08-20T22:21:14;16.70;;;12.90;;
13366;SDS011;6752;52.612;13.630;2022-08-20T22:26:15;14.32;;;11.98;;
13366;SDS011;6752;52.612;13.630;2022-08-20T22:36:19;15.70;;;12.43;;
13366;SDS011;6752;52.612;13.630;2022-08-20T22:41:22;17.35;;;13.75;;
13366;SDS011;6752;52.612;13.630;2022-08-20T22:46:25;14.20;;;11.55;;
13366;SDS011;6752;52.612;13.630;2022-08-20T22:51:28;14.63;;;12.63;;
13366;SDS011;6752;52.612;13.630;2022-08-20T22:56:29;15.85;;;12.80;;
13366;SDS011;6752;52.612;13.630;2022-08-20T23:01:31;13.55;;;11.12;;
13366;SDS011;6752;52.612;13.630;2022-08-20T23:06:34;11.73;;;10.18;;
13366;SDS011;6752;52.612;13.630;2022-08-20T23:11:36;12.50;;;9.73;;
13366;SDS011;6752;52.612;13.630;2022-08-20T23:16:40;17.20;;;10.15;;
13366;SDS011;6752;52.612;13.630;2022-08-20T23:21:41;16.75;;;12.23;;
13366;SDS011;6752;52.612;13.630;2022-08-20T23:26:43;17.37;;;13.57;;
13366;SDS011;6752;52.612;13.630;2022-08-20T23:31:45;17.17;;;13.25;;
13366;SDS011;6752;52.612;13.630;2022-08-20T23:36:48;19.25;;;14.15;;
13366;SDS011;6752;52.612;13.630;2022-08-20T23:41:50;17.10;;;13.23;;
13366;SDS011;6752;52.612;13.630;2022-08-20T23:46:56;16.83;;;12.50;;
13366;SDS011;6752;52.612;13.630;2022-08-20T23:52:00;14.10;;;10.88;;
13366;SDS011;6752;52.612;13.630;2022-08-20T23:57:03;13.60;;;10.82;;
